This is the latest recevied weather packets stored in our database for station/object OK5TVR-5. If no packets are shown the sender has not sent any weather packets the latest 10 day(s).
| Time | Temp. | Humidity | Pressure | Rain* | Wind** | Luminosity | Snow |
|---|---|---|---|---|---|---|---|
| 1777890685 | 25.56° C | 37% | 1005.5 hPa | 0 mm | - | 223 W/m² | - |
| 1777889783 | 26.67° C | 30% | 1005.4 hPa | 0 mm | - | 392 W/m² | - |
| 1777889783 | 26.67° C | 30% | 1005.4 hPa | 0 mm | - | 392 W/m² | - |
| 1777889783 | 26.67° C | 30% | 1005.4 hPa | 0 mm | - | 392 W/m² | - |
| 1777889783 | 26.67° C | 30% | 1005.4 hPa | 0 mm | - | 392 W/m² | - |
| 1777888883 | 25° C | 32% | 1005.6 hPa | 0 mm | - | 400 W/m² | - |
| 1777888881 | 25° C | 32% | 1005.6 hPa | 0 mm | - | 400 W/m² | - |
| 1777888881 | 25° C | 32% | 1005.6 hPa | 0 mm | - | 400 W/m² | - |
| 1777887982 | 24.44° C | 32% | 1005.6 hPa | 0 mm | - | 404 W/m² | - |
| 1777887981 | 24.44° C | 32% | 1005.6 hPa | 0 mm | - | 404 W/m² | - |
| 1777887981 | 24.44° C | 32% | - | 0 mm | - | - | - |
| 1777887080 | 25° C | 37% | 1005.6 hPa | 0 mm | - | 376 W/m² | - |
| 1777887080 | 25° C | 37% | 1005.6 hPa | 0 mm | - | 376 W/m² | - |
| 1777886180 | 24.44° C | 43% | 1005.7 hPa | 0 mm | - | 395 W/m² | - |
| 1777886180 | 24.44° C | 43% | 1005.7 hPa | 0 mm | - | 395 W/m² | - |
| 1777886180 | 24.44° C | 43% | 1005.7 hPa | 0 mm | - | 395 W/m² | - |
| 1777885278 | 23.33° C | 38% | 1005.8 hPa | 0 mm | - | 431 W/m² | - |
| 1777885277 | 23.33° C | 38% | 1005.8 hPa | 0 mm | - | 431 W/m² | - |
| 1777884377 | 21.67° C | 42% | 1006 hPa | 0 mm | - | 345 W/m² | - |
| 1777884376 | 21.67° C | 42% | 1006 hPa | 0 mm | - | 345 W/m² | - |
| 1777882574 | 21.67° C | 43% | 1006 hPa | 0 mm | - | 169 W/m² | - |
| 1777882574 | 21.67° C | 43% | 1006 hPa | 0 mm | - | 169 W/m² | - |
| 1777881672 | 22.22° C | 47% | 1005.9 hPa | 0 mm | - | 202 W/m² | - |
| 1777880770 | 22.22° C | 54% | 1005.9 hPa | 0 mm | - | 225 W/m² | - |
| 1777879869 | 20° C | 59% | 1006.2 hPa | 0 mm | - | 184 W/m² | - |
* Rain latest hour (hover to see other rain measurements)
** Current wind speed in m/s (hover to see current wind gust speed)